Main page
METAR-TAF:

METAR-TAF

Airports :

Port Hardy Airport

Port Hardy, British Columbia, Canada

latitude: 50-41N, longitude: 127-22W, elevation: 72 ft

Current weather observation

The report was made 23 minutes ago, at 07:00 UTC
Wind 20 mph from the Northwest with gusts up to 33 mph
Temperature 48°F
Humidity 81%
Pressure 29.97 in. Hg
Visibility: 15 miles
Scattered clouds at a height of 1800 ft

METAR: CYZT 220700Z 31017G29KT 15SM SCT018 09/06 A2997 RMK SC3 SLP151

Time: 00:23 (07:23 UTC)

Forecast

The report was made 43 minutes ago, at 06:40 UTC
Forecast valid from 22 at 07 UTC to 22 at 19 UTC
Wind 14 mph from the West/Northwest with gusts up to 25 mph
Visibility: 6 miles
Scattered clouds at a height of 2000 ft
From 22 at 0900 UTC
Wind 12 mph from the West
Visibility: 6 miles
Clear sky
Becoming
from 22 at 13 UTC to 22 at 15 UTC
Wind 14 mph from the Northwest with gusts up to 25 mph

TAF: CYZT 220640Z 2207/2219 29012G22KT P6SM SCT020 FM220900 28010KT P6SM SKC BECMG 2213/2215 31012G22KT RMK NXT FCST BY 221300Z

Weather observations and forecasts of more than 4000 airports (METAR and TAF reports).

The available stations are represented by yellow and red dots on the map.

Hover mouse over dot to see the name of the station.

Then click to see weather observations and forecasts.

To change the map : click on the green buttons with a black cross to zoom in, on the green button with a dash to zoom out, or on the green arrows for adjacent maps.


METAR-TAF: